createdAt,value
2023-03-22T00:00:30.492Z,5.67
2023-03-22T00:03:17.398Z,5.58
2023-03-22T00:06:03.940Z,5.58
2023-03-22T00:08:51.754Z,5.51
2023-03-22T00:11:38.090Z,5.44
2023-03-22T00:14:24.391Z,5.40
2023-03-22T00:17:11.165Z,5.35
2023-03-22T00:19:58.434Z,5.37
2023-03-22T00:22:44.924Z,5.33
2023-03-22T00:25:31.361Z,5.24
2023-03-22T00:28:18.327Z,5.17
2023-03-22T00:31:05.471Z,5.19
2023-03-22T00:33:52.115Z,5.11
2023-03-22T00:36:38.495Z,5.00
2023-03-22T00:39:25.116Z,5.05
2023-03-22T00:42:11.810Z,5.37
2023-03-22T00:44:59.743Z,5.26
2023-03-22T00:47:46.240Z,5.18
2023-03-22T00:50:32.684Z,4.92
2023-03-22T00:53:19.274Z,4.92
2023-03-22T00:56:06.831Z,5.00
2023-03-22T00:59:04.076Z,4.96
2023-03-22T01:01:50.698Z,4.88
2023-03-22T01:04:37.252Z,4.86
2023-03-22T01:07:24.970Z,4.99
2023-03-22T01:10:12.677Z,4.94
2023-03-22T01:12:59.181Z,4.96
2023-03-22T01:15:47.832Z,4.93
2023-03-22T01:18:35.811Z,4.94
2023-03-22T01:21:22.280Z,4.99
2023-03-22T01:24:09.450Z,4.93
2023-03-22T01:26:56.591Z,4.88
2023-03-22T01:29:42.904Z,4.78
2023-03-22T01:32:29.600Z,4.73
2023-03-22T01:35:16.473Z,4.70
2023-03-22T01:38:02.817Z,4.59
2023-03-22T01:40:49.472Z,4.59
2023-03-22T01:43:36.737Z,4.47
2023-03-22T01:46:23.527Z,4.39
2023-03-22T01:49:23.477Z,4.37
2023-03-22T01:52:14.754Z,4.29
2023-03-22T01:55:22.632Z,4.27
2023-03-22T01:58:18.267Z,4.28
2023-03-22T02:01:16.198Z,4.26
2023-03-22T02:04:15.507Z,4.23
2023-03-22T02:07:10.304Z,4.10
2023-03-22T02:09:59.302Z,4.11
2023-03-22T02:13:19.376Z,4.10
2023-03-22T02:16:44.317Z,4.09
2023-03-22T02:20:15.484Z,4.10
2023-03-22T02:23:05.880Z,4.08
2023-03-22T02:26:10.519Z,4.15
2023-03-22T02:29:17.784Z,4.07
2023-03-22T02:32:26.236Z,4.01
2023-03-22T02:35:35.027Z,4.15
2023-03-22T02:38:42.433Z,4.06
2023-03-22T02:41:54.748Z,4.09
2023-03-22T02:44:56.555Z,4.01
2023-03-22T02:47:49.857Z,4.06
2023-03-22T02:50:51.339Z,4.00
2023-03-22T02:53:50.487Z,3.92
2023-03-22T02:56:49.915Z,3.94
2023-03-22T02:59:40.933Z,3.97
2023-03-22T03:02:29.413Z,4.17
2023-03-22T03:05:18.743Z,4.08
2023-03-22T03:08:07.196Z,4.01
2023-03-22T03:10:56.733Z,3.97
2023-03-22T03:13:43.106Z,3.95
2023-03-22T03:16:34.675Z,3.97
2023-03-22T03:19:34.151Z,3.99
2023-03-22T03:22:41.596Z,4.10
2023-03-22T03:25:46.919Z,4.02
2023-03-22T03:28:44.902Z,3.85
2023-03-22T03:31:41.397Z,3.80
2023-03-22T03:34:42.113Z,3.71
2023-03-22T03:37:43.833Z,3.59
2023-03-22T03:40:33.658Z,3.55
2023-03-22T03:43:21.864Z,3.45
2023-03-22T03:46:10.304Z,3.42
2023-03-22T03:48:58.135Z,3.40
2023-03-22T03:51:48.109Z,3.33
2023-03-22T03:54:37.583Z,3.30
2023-03-22T03:57:27.221Z,3.07
2023-03-22T04:00:14.967Z,3.10
2023-03-22T04:03:14.984Z,3.30
2023-03-22T04:06:34.652Z,3.17
2023-03-22T04:09:29.971Z,3.11
2023-03-22T04:12:22.356Z,3.08
2023-03-22T04:15:28.886Z,3.02
2023-03-22T04:18:19.613Z,3.00
2023-03-22T04:21:06.719Z,3.00
2023-03-22T04:24:03.720Z,2.93
2023-03-22T04:26:55.476Z,2.94
2023-03-22T04:29:50.749Z,2.86
2023-03-22T04:32:56.344Z,2.93
2023-03-22T04:35:56.860Z,2.93
2023-03-22T04:38:49.582Z,2.91
2023-03-22T04:41:40.765Z,2.85
2023-03-22T04:44:27.290Z,2.85
2023-03-22T04:47:14.216Z,2.80
2023-03-22T04:50:00.767Z,2.83
2023-03-22T04:52:51.129Z,2.84
2023-03-22T04:55:37.568Z,2.72
2023-03-22T04:58:27.289Z,2.71
2023-03-22T05:01:15.425Z,2.70
2023-03-22T05:04:04.186Z,2.63
2023-03-22T05:06:50.456Z,2.61
2023-03-22T05:09:43.215Z,2.55
2023-03-22T05:12:29.821Z,2.72
2023-03-22T05:15:32.857Z,2.72
2023-03-22T05:18:26.333Z,2.73
2023-03-22T05:21:17.896Z,2.66
2023-03-22T05:24:05.108Z,2.72
2023-03-22T05:26:53.836Z,2.79
2023-03-22T05:29:46.761Z,2.96
2023-03-22T05:32:45.869Z,3.06
2023-03-22T05:35:34.211Z,2.96
2023-03-22T05:38:25.400Z,3.03
2023-03-22T05:41:17.679Z,3.05
2023-03-22T05:44:04.898Z,3.06
2023-03-22T05:46:54.091Z,3.14
2023-03-22T05:49:49.408Z,3.20
2023-03-22T05:52:36.307Z,3.27
2023-03-22T05:55:42.817Z,3.40
2023-03-22T05:58:31.634Z,3.55
2023-03-22T06:01:20.399Z,3.52
2023-03-22T06:04:06.847Z,3.66
2023-03-22T06:07:16.177Z,3.71
2023-03-22T06:10:09.512Z,4.03
2023-03-22T06:12:56.094Z,4.11
2023-03-22T06:15:47.839Z,4.23
2023-03-22T06:18:40.725Z,4.38
2023-03-22T06:21:31.019Z,4.49
2023-03-22T06:24:17.619Z,4.60
2023-03-22T06:27:05.484Z,4.68
2023-03-22T06:29:54.668Z,4.80
2023-03-22T06:32:44.395Z,5.07
2023-03-22T06:35:34.721Z,5.26
2023-03-22T06:38:24.147Z,5.31
2023-03-22T06:41:10.578Z,5.43
2023-03-22T06:43:56.974Z,5.64
2023-03-22T06:47:06.747Z,5.84
2023-03-22T06:50:12.221Z,6.09
2023-03-22T06:53:30.595Z,6.30
2023-03-22T06:56:17.221Z,6.51
2023-03-22T06:59:09.021Z,6.75
2023-03-22T07:01:55.359Z,6.91
2023-03-22T07:04:42.125Z,7.08
2023-03-22T07:07:28.793Z,7.39
2023-03-22T07:10:15.681Z,7.61
2023-03-22T07:13:03.191Z,7.80
2023-03-22T07:15:56.076Z,7.95
2023-03-22T07:18:54.433Z,8.23
2023-03-22T07:21:40.950Z,8.36
2023-03-22T07:24:30.753Z,8.55
2023-03-22T07:27:18.263Z,8.76
2023-03-22T07:30:07.648Z,8.97
2023-03-22T07:32:58.563Z,9.14
2023-03-22T07:35:45.449Z,9.39
2023-03-22T07:38:32.248Z,9.60
2023-03-22T07:41:19.047Z,9.92
2023-03-22T07:44:18.038Z,10.10
2023-03-22T07:47:40.764Z,10.28
2023-03-22T07:50:56.900Z,10.56
2023-03-22T07:53:45.673Z,10.82
2023-03-22T07:56:32.661Z,11.02
2023-03-22T07:59:19.238Z,11.18
2023-03-22T08:02:06.634Z,11.28
2023-03-22T08:04:58.721Z,11.51
2023-03-22T08:07:51.501Z,11.59
2023-03-22T08:10:38.553Z,11.71
2023-03-22T08:13:26.028Z,11.80
2023-03-22T08:16:13.092Z,11.74
2023-03-22T08:19:00.100Z,12.20
2023-03-22T08:21:48.355Z,12.52
2023-03-22T08:24:50.009Z,12.73
2023-03-22T08:27:45.094Z,12.94
2023-03-22T08:30:31.646Z,13.17
2023-03-22T08:33:21.156Z,13.29
2023-03-22T08:36:09.781Z,13.72
2023-03-22T08:39:04.677Z,13.92
2023-03-22T08:42:09.756Z,13.98
2023-03-22T08:44:56.623Z,14.01
2023-03-22T08:47:46.392Z,14.11
2023-03-22T08:50:35.023Z,14.25
2023-03-22T08:53:35.506Z,14.44
2023-03-22T08:56:43.646Z,14.59
2023-03-22T08:59:52.260Z,14.80
2023-03-22T09:03:05.367Z,14.87
2023-03-22T09:05:52.224Z,14.84
2023-03-22T09:08:38.950Z,14.88
2023-03-22T09:11:31.521Z,14.97
2023-03-22T09:14:18.156Z,14.69
2023-03-22T09:17:06.246Z,14.66
2023-03-22T09:20:02.858Z,14.49
2023-03-22T09:22:53.091Z,14.32
2023-03-22T09:25:43.329Z,14.33
2023-03-22T09:28:30.535Z,14.64
2023-03-22T09:31:20.538Z,14.64
2023-03-22T09:34:12.663Z,14.89
2023-03-22T09:37:02.440Z,14.98
2023-03-22T09:39:57.791Z,15.01
2023-03-22T09:42:51.826Z,15.07
2023-03-22T09:45:43.726Z,15.25
2023-03-22T09:48:42.473Z,15.27
2023-03-22T09:51:43.686Z,15.22
2023-03-22T09:54:34.605Z,15.36
2023-03-22T09:57:41.168Z,15.54
2023-03-22T10:00:51.404Z,15.79
2023-03-22T10:04:10.161Z,15.94
2023-03-22T10:07:44.460Z,16.33
2023-03-22T10:10:31.153Z,16.58
2023-03-22T10:13:27.121Z,16.87
2023-03-22T10:16:25.696Z,17.34
2023-03-22T10:19:28.076Z,17.60
2023-03-22T10:22:17.315Z,17.81
2023-03-22T10:25:06.759Z,17.74
2023-03-22T10:27:53.242Z,17.65
2023-03-22T10:30:41.506Z,17.75
2023-03-22T10:33:37.604Z,17.46
2023-03-22T10:36:31.232Z,17.22
2023-03-22T10:39:40.793Z,17.21
2023-03-22T10:42:30.396Z,17.43
2023-03-22T10:45:17.222Z,17.57
2023-03-22T10:48:14.388Z,17.58
2023-03-22T10:51:01.477Z,17.59
2023-03-22T10:53:53.004Z,17.59
2023-03-22T10:56:39.290Z,17.66
2023-03-22T10:59:49.008Z,17.78
2023-03-22T11:02:35.699Z,17.83
2023-03-22T11:05:25.834Z,18.01
2023-03-22T11:08:15.156Z,18.26
2023-03-22T11:11:07.634Z,18.42
2023-03-22T11:14:00.185Z,18.65
2023-03-22T11:16:56.660Z,18.80
2023-03-22T11:20:01.784Z,18.82
2023-03-22T11:22:50.530Z,18.88
2023-03-22T11:25:44.049Z,18.82
2023-03-22T11:28:46.469Z,18.71
2023-03-22T11:31:58.095Z,18.58
2023-03-22T11:34:46.330Z,18.67
2023-03-22T11:37:32.633Z,18.79
2023-03-22T11:40:20.952Z,18.77
2023-03-22T11:43:10.553Z,18.85
2023-03-22T11:45:58.900Z,18.63
2023-03-22T11:48:47.263Z,18.27
2023-03-22T11:51:40.941Z,18.63
2023-03-22T11:54:31.852Z,18.54
2023-03-22T11:57:24.264Z,18.61
2023-03-22T12:00:15.079Z,18.64
2023-03-22T12:03:05.908Z,18.62
2023-03-22T12:05:53.003Z,18.52
2023-03-22T12:09:14.118Z,18.58
2023-03-22T12:12:03.427Z,18.61
2023-03-22T12:14:59.810Z,18.65
2023-03-22T12:18:06.092Z,18.67
2023-03-22T12:20:59.504Z,18.35
2023-03-22T12:23:45.990Z,18.35
2023-03-22T12:26:35.141Z,18.44
2023-03-22T12:29:22.366Z,18.54
2023-03-22T12:32:30.847Z,18.54
2023-03-22T12:35:29.157Z,18.70
2023-03-22T12:38:33.900Z,19.18
2023-03-22T12:41:26.468Z,19.48
2023-03-22T12:44:58.932Z,19.62
2023-03-22T12:48:14.760Z,19.86
2023-03-22T12:51:05.823Z,19.92
2023-03-22T12:53:57.026Z,19.90
2023-03-22T12:56:45.967Z,19.85
2023-03-22T12:59:32.829Z,19.98
2023-03-22T13:02:27.555Z,19.76
2023-03-22T13:05:14.291Z,19.16
2023-03-22T13:08:04.002Z,18.82
2023-03-22T13:11:03.337Z,18.63
2023-03-22T13:13:49.879Z,18.72
2023-03-22T13:16:59.223Z,19.06
2023-03-22T13:19:53.569Z,19.17
2023-03-22T13:22:41.585Z,19.01
2023-03-22T13:25:37.501Z,18.95
2023-03-22T13:28:26.385Z,19.28
2023-03-22T13:31:34.025Z,19.67
2023-03-22T13:34:31.262Z,19.91
2023-03-22T13:37:49.254Z,19.97
2023-03-22T13:40:44.581Z,20.05
2023-03-22T13:43:32.924Z,20.05
2023-03-22T13:46:22.441Z,19.91
2023-03-22T13:49:31.278Z,20.04
2023-03-22T13:52:41.332Z,19.99
2023-03-22T13:56:03.664Z,19.75
2023-03-22T13:58:53.231Z,19.48
2023-03-22T14:01:47.618Z,19.71
2023-03-22T14:04:43.450Z,19.98
2023-03-22T14:07:53.141Z,20.15
2023-03-22T14:11:09.008Z,20.31
2023-03-22T14:14:28.651Z,20.45
2023-03-22T14:17:38.919Z,20.12
2023-03-22T14:20:30.375Z,20.02
